Aspen, CO (81611)

4:12 PM MDT on August 23, 2016 (GMT -0600)
Pitkin County Government Offices | | Change Station

Elev 7917 ft 39.19 °N, 106.82 °W | Updated 10 seconds ago

Mostly Cloudy
Mostly Cloudy
72.5 °F
Feels Like 76 °F
N
2.0
Wind Variable Wind from NNW
Gusts 4.0 mph

Today
High -- | Low -- °F
--% Chance of Precip.
Yesterday
High -- | Low -- °F
Precip. -- in
Pressure 29.89 in
Visibility 10.0 miles
Clouds Mostly Cloudy 10000 ft
Heat Index 76 °F
Dew Point 40 °F
Humidity 31%
Rainfall 0.00 in
Snow Depth Not available.
6:28 AM 7:50 PM
Waning Gibbous, 64% visible
METAR KASE 232153Z 36009KT 10SM BKN100 23/02 A3024 RMK AO2 LTG DSNT SW SLP120 T02280017
Pressure 29.89 in
Visibility 10.0 miles
Clouds Mostly Cloudy 10000 ft
Heat Index 76 °F
Dew Point 40 °F
Humidity 31%
Rainfall 0.00 in
Snow Depth Not available.
6:28 AM 7:50 PM
Waning Gibbous, 64% visible
METAR KASE 232153Z 36009KT 10SM BKN100 23/02 A3024 RMK AO2 LTG DSNT SW SLP120 T02280017

10-Day Weather Forecast

Almanac

Astronomy

Aug. 23, 2016 Rise Set
Actual Time
Civil Twilight
Nautical Twilight
Astronomical Twilight
Moon
Length of Visible Light
Length of Day
Tomorrow will be .
, % of the Moon is Illuminated

Today's Extremes

State Highs State Lows

Community

WunderPhotos

Upload Photos

1,934,476 photos uploaded!

WunderBlog® & News

Nearby

Air Quality

  Air Quality AQ Index Pollutant
Not available.

Snow Depth

Station Depth Elevation

Earthquake Activity

City Distance Mag. Time & Date
Minimum magnitude displayed is 2.5.

Coastal Water Temperatures

Place Temperature

Stations

Nearby Weather Stations

Station Location Temp. Windchill Dew Point Humidity Wind Precip. Elev Updated Type
                   

Watches & Warnings

There are currently no watches in effect.